KPVD/PVD METAR and TAF weather

Enter ICAO airport designator
Station Type Date Time Source
KPVD METAR 2019/12/16 02:51 UTC NOAA

KPVD 160251Z 30009G18KT 10SM FEW060 02/M07 A3002 RMK AO2 PK WND 31027/0216 SLP167 T00171072 51040 $


Station Type Date Time Source
KPVD Decoded METAR 2019/12/16 02:51 UTC NOAA

PROVIDENCE GREEN STATE AIRPORT , RI, United States (KPVD) 41-44N 071-26W 16M
Dec 15, 2019 - 09:51 PM EST / 2019.12.16 0251 UTC
Wind: from the WNW (300 degrees) at 10 MPH (9 KT) gusting to 21 MPH (18 KT):0
Visibility: 10 mile(s):0
Sky conditions: mostly clear
Temperature: 35.1 F (1.7 C)
Dew Point: 19.0 F (-7.2 C)
Relative Humidity: 51%
Pressure (altimeter): 30.02 in. Hg (1016 hPa)
Pressure tendency: 0.12 inches (4.0 hPa) higher than three hours ago
ob: KPVD 160251Z 30009G18KT 10SM FEW060 02/M07 A3002 RMK AO2 PK WND 31027/0216 SLP167 T00171072 51040
cycle: 3

Station Type Date Time Source
KPVD TAF 2019/12/15 21:36 UTC NOAA

TAF
AMD KPVD 152034Z 1521/1618 28016G29KT P6SM SCT070
FM160100 28014G22KT P6SM FEW250
FM160700 28009KT P6SM FEW200

Example: see airport list